Peerless, MT (59253)

8:24 PM MDT on May 28, 2015 (GMT -0600)
Ossette | | Change Station
CLOSE
Current Station
Personal Weather Station
Location: Montana, MT
Elevation: 2936 ft
Nearby Weather Stations

Elev 2936 ft 48.56 °N, 106.05 °W | Updated 5 seconds ago

Mostly Cloudy
Mostly Cloudy
49.1 °F
Feels Like 43 °F
N
17.3
Wind Variable Wind from NNE
Gusts 26.0 mph

Today
High -- | Low -- °F
--% Chance of Precip.
Yesterday
High -- | Low -- °F
Precip. -- in
5:07 AM 8:53 PM
Waxing Gibbous, 80% visible
Pressure 30.12 in
Visibility 7.0 miles
Clouds Mostly Cloudy 2400 ft
Windchill 43 °F
Dew Point 42 °F
Humidity 78%
Rainfall 0.07 in
Snow Depth Not available.
UV 0 out of 12
Pollen 7.20 out of 12
Air Quality Not available.
Flu Activity Sporadic
SPECI KOLF 290221Z AUTO 03013G21KT 7SM BKN024 13/08 A3012 RMK AO2 PK WND 03029/0159 T01330083

More Conditions Fewer Conditions

Pressure 30.12 in
Visibility 7.0 miles
Clouds Mostly Cloudy 2400 ft
Windchill 43 °F
Dew Point 42 °F
Humidity 78%
Rainfall 0.07 in
Snow Depth Not available.
UV 0 out of 12
Pollen 7.20 out of 12
Air Quality Not available.
Flu Activity Sporadic
SPECI KOLF 290221Z AUTO 03013G21KT 7SM BKN024 13/08 A3012 RMK AO2 PK WND 03029/0159 T01330083

More Conditions Fewer Conditions

10-Day Weather Forecast

Almanac

Astronomy

May. 28, 2015 Rise Set
Actual Time
Civil Twilight
Nautical Twilight
Astronomical Twilight
Moon
Length of Visible Light
Length of Day
Tomorrow will be .
, % of the Moon is Illuminated

Today's Extremes

State Highs State Lows

Community

WunderPhotos

Upload Photos

1,825,137 photos uploaded!

WunderBlogs® & News

Nearby

Air Quality

  Air Quality AQ Index Pollutant
Not available.

Snow Depth

Station Depth Elevation

Earthquake Activity

City Distance Mag. Time & Date
Minimum magnitude displayed is 2.5.

Coastal Water Temperatures

Place Temperature

Stations

Nearby Weather Stations

Station Location Temp. Windchill Dew Point Humidity Wind Precip. Elev Updated Type